Latest Weather Observations for McCluer Island

IDD60801

Issued at 12:35 pm CST Wednesday 17 September 2014 (issued every 30 minutes, with the page automatically refreshed every 10 minutes)

About weather observations | Map of weather stations | Latest weather observations for NT | Other Formats
Station Details ID: 014274 Name: MCCLUER ISLAND Lat: -11.05 Lon: 132.98 Height: 1.4 m
Data from the previous 72 hours. | See also: Recent months at McCluer Island
Date/Time
CST
Temp
°C
App
Temp
°C
Dew
Point
Rel
Hum
%
Delta-T
°C
Wind Press
QNH
hPa
Press
MSL
hPa
Rain
since 9 am
mm
Dir
 
Spd
km/h
Gust
km/h
Spd
kts
Gust
kts
17/12:30pm 27.8 29.3 24.4 82 2.4 ESE 24 28 13 15 1013.3 - 0.0
17/12:00pm 27.6 29.4 24.2 82 2.4 ESE 22 26 12 14 1013.6 1013.6 0.0
17/11:30am 27.7 29.4 24.1 81 2.5 ESE 22 26 12 14 1013.7 - 0.0
17/11:00am 27.5 29.5 23.9 81 2.5 ESE 20 24 11 13 1014.0 - 0.0
17/10:30am 27.8 30.0 24.0 80 2.6 ESE 19 22 10 12 1014.3 - 0.0
17/10:00am 27.6 29.8 24.0 81 2.5 ESE 19 22 10 12 1014.7 - 0.0
17/09:30am 27.4 29.8 24.3 83 2.1 E 19 20 10 11 1014.6 - 0.0
17/09:00am 27.0 29.3 24.1 84 2.0 ESE 19 20 10 11 1014.2 1014.2 0.0
17/08:30am 26.6 28.9 24.1 86 1.7 E 19 22 10 12 1013.8 - 0.0
17/08:00am 26.2 28.6 24.2 89 1.4 E 19 22 10 12 1013.4 - 0.0
17/07:30am 25.9 27.7 24.3 91 1.1 E 22 26 12 14 1013.0 - 0.0
17/07:00am 25.5 27.9 24.3 93 0.8 E 19 20 10 11 1012.5 - 0.0
17/06:30am 25.2 27.2 24.0 93 0.8 E 20 24 11 13 1012.0 - 0.0
17/06:00am 25.2 27.4 24.2 94 0.7 E 20 24 11 13 1011.9 1011.9 0.0
17/05:30am 25.4 27.9 24.7 96 0.5 E 20 24 11 13 1011.6 - 0.0
17/05:00am 25.3 27.6 24.4 95 0.6 E 20 24 11 13 1011.4 - 0.0
17/04:30am 25.2 27.0 24.2 94 0.7 E 22 26 12 14 1011.2 - 0.0
17/04:00am 25.2 26.7 24.3 95 0.6 E 24 28 13 15 1011.1 - 0.0
17/03:30am 25.4 27.0 24.5 95 0.6 E 24 28 13 15 1011.2 - 0.0
17/03:00am 25.5 27.2 24.6 95 0.6 E 24 28 13 15 1011.2 1011.2 0.0
17/02:30am 25.6 27.4 24.9 96 0.5 E 24 26 13 14 1011.5 - 0.0
17/02:00am 25.4 28.0 24.9 97 0.3 E 20 24 11 13 1011.8 - 0.0
17/01:30am 25.5 28.0 24.8 96 0.5 E 20 24 11 13 1011.9 - 0.0
17/01:00am 25.6 27.7 24.7 95 0.6 ENE 22 26 12 14 1012.2 - 0.0
17/12:30am 25.9 28.7 25.2 96 0.5 ENE 20 22 11 12 1012.5 - 0.0
17/12:00am 25.8 28.0 24.9 95 0.6 ENE 22 26 12 14 1012.6 1012.6 0.0
 
Date/Time
CST
Temp
°C
App
Temp
°C
Dew
Point
Rel
Hum
%
Delta-T
°C
Wind Press
QNH
hPa
Press
MSL
hPa
Rain
since 9 am
mm
Dir
 
Spd
km/h
Gust
km/h
Spd
kts
Gust
kts
16/11:30pm 25.7 27.9 24.8 95 0.6 ENE 22 26 12 14 1012.7 - 0.0
16/11:00pm 26.0 28.5 25.3 96 0.5 ENE 22 26 12 14 1012.6 - 0.0
16/10:30pm 25.8 27.2 24.8 94 0.7 ENE 26 28 14 15 1012.6 - 0.0
16/10:00pm 25.7 27.7 24.5 93 0.8 ENE 22 26 12 14 1012.5 - 0.0
16/09:30pm 25.8 27.7 24.4 92 1.0 ENE 22 26 12 14 1012.4 - 0.0
16/09:00pm 25.8 27.2 24.2 91 1.1 ENE 24 28 13 15 1012.2 1012.2 0.0
16/08:30pm 25.8 26.4 24.2 91 1.1 ENE 28 32 15 17 1011.9 - 0.0
16/08:00pm 25.8 26.3 24.0 90 1.2 ENE 28 32 15 17 1011.6 - 0.0
16/07:30pm 25.9 26.4 23.9 89 1.4 ENE 28 33 15 18 1011.2 - 0.0
16/07:00pm 26.0 26.3 24.2 90 1.2 ENE 30 33 16 18 1011.0 - 0.0
16/06:30pm 26.0 26.1 23.9 88 1.4 ENE 30 35 16 19 1010.6 - 0.0
16/06:00pm 26.1 26.5 23.8 87 1.6 ENE 28 32 15 17 1010.4 1010.4 0.0
16/05:30pm 26.3 27.0 23.6 85 1.8 ENE 26 32 14 17 1010.4 - 0.0
16/05:00pm 27.0 28.5 24.3 85 1.9 ENE 24 28 13 15 1010.4 - 0.0
16/04:30pm 26.8 28.3 23.7 83 2.1 ENE 22 26 12 14 1010.6 - 0.0
16/04:00pm 26.8 27.9 23.1 80 2.5 ENE 22 28 12 15 1010.6 - 0.0
16/03:30pm 27.6 30.0 24.2 82 2.4 ENE 19 22 10 12 1010.8 - 0.0
16/03:00pm 27.4 29.3 23.8 81 2.5 ENE 20 22 11 12 1011.0 1011.0 0.0
16/02:30pm 27.3 28.9 23.3 79 2.7 ENE 20 24 11 13 1011.3 - 0.0
16/02:00pm 27.2 28.9 23.4 80 2.6 ENE 20 24 11 13 1011.7 - 0.0
16/01:30pm 27.6 29.8 24.2 82 2.4 ENE 20 22 11 12 1012.1 - 0.0
16/01:00pm 27.7 30.1 23.7 79 2.7 E 17 20 9 11 1012.3 - 0.0
16/12:30pm 28.3 31.0 24.1 78 2.9 E 17 19 9 10 1012.7 - 0.0
16/12:00pm 28.2 30.9 24.2 79 2.8 E 17 20 9 11 1013.0 1013.0 0.0
16/11:30am 28.0 31.1 24.2 80 2.6 E 15 20 8 11 1013.2 - 0.0
16/11:00am 27.6 30.2 24.0 81 2.5 E 17 19 9 10 1013.5 - 0.0
16/10:30am 27.7 30.1 24.3 82 2.4 E 19 20 10 11 1013.7 - 0.0
16/10:00am 27.1 29.8 24.2 84 2.0 E 17 20 9 11 1013.8 - 0.0
16/09:30am 27.1 29.8 24.2 84 2.0 E 17 20 9 11 1013.8 - 0.0
16/09:00am 26.6 29.5 23.9 85 1.9 E 15 17 8 9 1013.8 1013.8 0.0
16/08:30am 26.9 30.7 24.7 88 1.5 E 13 15 7 8 1013.6 - 0.0
16/08:00am 26.2 29.8 24.4 90 1.2 E 13 17 7 9 1013.2 - 0.0
16/07:30am 25.7 28.6 23.9 90 1.2 E 15 19 8 10 1012.8 - 0.0
16/07:00am 25.6 28.7 24.2 92 1.0 ENE 15 17 8 9 1012.4 - 0.0
16/06:30am 25.4 28.4 24.0 92 1.0 E 15 19 8 10 1012.0 - 0.0
16/06:00am 25.4 27.3 23.8 91 1.1 ENE 20 24 11 13 1011.5 1011.5 0.0
16/05:30am 25.5 27.1 23.9 91 1.1 ENE 22 24 12 13 1011.3 - 0.0
16/05:00am 25.6 27.4 24.2 92 1.0 ENE 22 26 12 14 1011.1 - 0.0
16/04:30am 25.5 27.0 23.7 90 1.2 ENE 22 26 12 14 1010.9 - 0.0
16/04:00am 25.8 27.6 24.2 91 1.1 ENE 22 28 12 15 1010.5 - 0.0
16/03:30am 25.7 27.2 23.7 89 1.4 ENE 22 26 12 14 1010.6 - 0.0
16/03:00am 25.8 27.0 23.8 89 1.4 E 24 28 13 15 1010.8 1010.8 0.0
16/02:30am 25.8 26.6 23.8 89 1.4 ENE 26 30 14 16 1011.1 - 0.0
16/02:00am 25.5 27.2 24.1 92 1.0 ENE 22 26 12 14 1011.3 - 0.0
16/01:30am 25.6 27.5 24.4 93 0.8 ENE 22 26 12 14 1011.5 - 0.0
16/01:00am 25.8 27.6 24.8 94 0.7 ENE 24 30 13 16 1011.8 - 0.0
16/12:30am 25.7 28.2 24.7 94 0.7 ENE 20 24 11 13 1011.9 - 0.0
16/12:00am 25.6 27.3 24.7 95 0.6 ENE 24 28 13 15 1011.9 1011.9 0.0
 
Date/Time
CST
Temp
°C
App
Temp
°C
Dew
Point
Rel
Hum
%
Delta-T
°C
Wind Press
QNH
hPa
Press
MSL
hPa
Rain
since 9 am
mm
Dir
 
Spd
km/h
Gust
km/h
Spd
kts
Gust
kts
15/11:30pm 25.8 27.6 24.9 95 0.6 ENE 24 28 13 15 1012.0 - 0.0
15/11:00pm 25.8 27.6 24.8 94 0.7 ENE 24 30 13 16 1012.0 - 0.0
15/10:30pm 25.9 27.6 24.7 93 0.8 ENE 24 28 13 15 1011.9 - 0.0
15/10:00pm 25.9 27.1 24.5 92 1.0 ENE 26 32 14 17 1011.9 - 0.0
15/09:30pm 25.9 27.6 24.7 93 0.8 ENE 24 30 13 16 1011.7 - 0.0
15/09:00pm 25.9 27.0 24.9 94 0.7 ENE 28 32 15 17 1011.5 1011.5 0.0
15/08:30pm 25.9 26.9 24.7 93 0.8 ENE 28 32 15 17 1011.3 - 0.0
15/08:00pm 26.0 27.2 25.1 95 0.6 ENE 28 33 15 18 1011.1 - 0.0
15/07:30pm 25.9 26.5 24.7 93 0.8 ENE 30 35 16 19 1010.7 - 0.0
15/07:00pm 25.8 26.2 24.4 92 1.0 ENE 30 33 16 18 1010.3 - 0.0
15/06:30pm 26.2 27.0 25.0 93 0.8 ENE 30 33 16 18 1010.1 - 0.0
15/06:00pm 26.1 25.9 24.0 88 1.4 ENE 32 35 17 19 1009.9 1009.9 0.0
15/05:30pm 26.3 26.4 24.0 87 1.6 ENE 30 33 16 18 1010.0 - 0.0
15/05:00pm 26.8 27.1 24.3 86 1.7 E 30 33 16 18 1010.1 - 0.0
15/04:30pm 27.1 28.1 24.2 84 2.0 E 26 30 14 16 1010.2 - 0.0
15/04:00pm 27.8 29.6 24.8 84 2.1 E 24 28 13 15 1010.4 - 0.0
15/03:30pm 27.9 29.5 24.5 82 2.4 E 24 28 13 15 1010.5 - 0.0
15/03:00pm 27.9 29.6 24.7 83 2.2 E 24 28 13 15 1010.8 1010.8 0.0
15/02:30pm 28.2 30.1 24.4 80 2.6 E 22 26 12 14 1011.1 - 0.0
15/02:00pm 28.0 29.6 23.8 78 2.9 E 22 26 12 14 1011.4 - 0.0
15/01:30pm 27.6 28.9 23.4 78 2.9 E 22 28 12 15 1011.8 - 0.0
15/01:00pm 27.7 28.8 23.7 79 2.7 E 24 28 13 15 1012.1 - 0.0
15/12:30pm 27.6 28.9 24.0 81 2.5 E 24 28 13 15 1012.5 - 0.0
15/12:00pm 27.5 29.1 24.5 84 2.1 E 24 30 13 16 1012.9 1012.9 0.0
15/11:30am 27.4 28.3 24.0 82 2.3 E 26 30 14 16 1013.3 - 0.0
15/11:00am 27.4 28.1 23.6 80 2.6 E 26 30 14 16 1013.7 - 0.0
15/10:30am 27.3 28.4 23.7 81 2.5 E 24 28 13 15 1013.8 - 0.0
15/10:00am 27.2 28.1 23.4 80 2.6 E 24 26 13 14 1013.8 - 0.0
15/09:30am 26.7 27.9 23.8 84 2.0 E 24 30 13 16 1013.7 - 0.0
15/09:00am 26.5 27.3 23.8 85 1.9 E 26 30 14 16 1013.5 1013.5 0.0
15/08:30am 26.2 27.2 24.1 88 1.4 E 26 32 14 17 1013.2 - 0.0
15/08:00am 25.9 27.4 24.3 91 1.1 E 24 28 13 15 1012.8 - 0.0
15/07:30am 25.6 26.4 24.4 93 0.8 E 28 32 15 17 1012.5 - 0.0
15/07:00am 25.5 26.3 24.5 94 0.7 E 28 32 15 17 1012.0 - 0.0
15/06:30am 25.4 26.6 24.5 95 0.6 E 26 32 14 17 1011.8 - 0.0
15/06:00am 25.4 25.8 24.5 95 0.6 E 30 33 16 18 1011.4 1011.4 0.0
15/05:30am 25.5 26.5 24.8 96 0.5 E 28 33 15 18 1011.0 - 0.0
15/05:00am 25.5 26.1 24.8 96 0.5 E 30 33 16 18 1010.8 - 0.0
15/04:30am 25.7 26.3 24.8 95 0.6 E 30 33 16 18 1010.6 - 0.0
15/04:00am 25.7 26.0 24.8 95 0.6 ENE 32 37 17 20 1010.5 - 0.0
15/03:30am 25.7 26.0 24.8 95 0.6 E 32 35 17 19 1010.6 - 0.0
15/03:00am 25.6 25.8 24.7 95 0.6 ENE 32 35 17 19 1010.7 1010.7 0.0
15/02:30am 25.7 25.7 24.7 94 0.7 ENE 33 37 18 20 1010.8 - 0.0
15/02:00am 25.8 26.1 24.8 94 0.7 ENE 32 37 17 20 1011.0 - 0.0
15/01:30am 25.8 26.1 24.8 94 0.7 ENE 32 35 17 19 1011.3 - 0.0
15/01:00am 25.8 26.5 24.9 95 0.6 ENE 30 33 16 18 1011.5 - 0.0
15/12:30am 25.8 26.6 25.1 96 0.5 ENE 30 35 16 19 1011.6 - 0.0
15/12:00am 25.9 26.4 25.2 96 0.5 ENE 32 35 17 19 1011.8 1011.8 0.0
 
Date/Time
CST
Temp
°C
App
Temp
°C
Dew
Point
Rel
Hum
%
Delta-T
°C
Wind Press
QNH
hPa
Press
MSL
hPa
Rain
since 9 am
mm
Dir
 
Spd
km/h
Gust
km/h
Spd
kts
Gust
kts
14/11:30pm 25.9 26.4 25.2 96 0.5 ENE 32 35 17 19 1012.0 - 0.0
14/11:00pm 25.8 26.5 24.9 95 0.6 ENE 30 33 16 18 1011.9 - 0.0
14/10:30pm 25.7 25.9 24.7 94 0.7 NE 32 35 17 19 1011.8 - 0.0
14/10:00pm 26.0 26.4 25.0 94 0.7 NE 32 37 17 20 1011.5 - 0.0
14/09:30pm 25.9 25.7 24.3 91 1.1 NE 33 37 18 20 1011.2 - 0.0
14/09:00pm 25.9 25.7 24.3 91 1.1 NE 33 37 18 20 1011.1 1011.1 0.0
14/08:30pm 25.9 25.7 24.3 91 1.1 NE 33 37 18 20 1010.9 - 0.0
14/08:00pm 25.8 25.4 24.0 90 1.2 NE 33 37 18 20 1010.9 - 0.0
14/07:30pm 26.1 26.2 24.0 88 1.4 NE 30 35 16 19 1010.6 - 0.0
14/07:00pm 26.0 26.6 24.2 90 1.2 NE 28 33 15 18 1010.4 - 0.0
14/06:30pm 26.2 26.5 24.2 89 1.4 ENE 30 33 16 18 1010.2 - 0.0
14/06:00pm 26.4 27.0 24.1 87 1.6 ENE 28 33 15 18 1010.1 1010.1 0.0
14/05:30pm 26.3 26.7 23.8 86 1.7 E 28 32 15 17 1010.1 - 0.0
14/05:00pm 26.8 27.0 24.1 85 1.9 E 30 33 16 18 1010.1 - 0.0
14/04:30pm 27.0 27.5 23.9 83 2.1 E 28 32 15 17 1010.0 - 0.0
14/04:00pm 27.0 27.1 23.3 80 2.5 E 28 30 15 16 1009.9 - 0.0
14/03:30pm 26.9 27.1 22.7 78 2.8 E 26 32 14 17 1010.2 - 0.0
14/03:00pm 27.7 28.7 24.1 81 2.5 E 26 30 14 16 1010.4 1010.4 0.0
14/02:30pm 27.4 27.8 23.2 78 2.9 E 26 32 14 17 1010.8 - 0.0
14/02:00pm 27.5 27.9 23.7 80 2.6 ESE 28 32 15 17 1010.9 - 0.0
14/01:30pm 27.6 28.1 24.0 81 2.5 E 28 33 15 18 1011.3 - 0.0
14/01:00pm 27.3 27.0 23.3 79 2.7 ESE 30 35 16 19 1011.8 - 0.0

Other Formats:

Comma delimited format used in spreadsheet applications
http://www.bom.gov.au/fwo/IDD60801/IDD60801.94135.axf

JavaScript Object Notation format (JSON) in row-major order
http://www.bom.gov.au/fwo/IDD60801/IDD60801.94135.json